Time;durP1;ratioP1;P1;durP2;ratioP2;P2;SDS_P1;SDS_P2;PMS_P1;PMS_P2;Temp;Humidity;BMP_temperature;BMP_pressure;BME280_temperature;BME280_humidity;BME280_pressure;Samples;Min_cycle;Max_cycle;Signal;HPM_P1;HPM_P2
2023/08/26 00:01:10;;;;;;;;;;;;;;;16.62;53.53;100710.91;5059321;28;1145;-58
2023/08/26 00:03:36;;;;;;;;;;;;;;;16.59;53.42;100705.97;5059172;28;1166;-58
2023/08/26 00:06:01;;;;;;;;;;;;;;;16.61;53.38;100712.00;5077450;28;877;-58
2023/08/26 00:08:27;;;;;;;;;;;;;;;16.58;53.49;100707.88;5077878;28;1237;-58
2023/08/26 00:10:52;;;;;;;;;;;;;;;16.91;54.02;100710.34;5078514;28;1976;-58
2023/08/26 00:13:18;;;;;;;;;;;;;;;17.73;54.12;100717.50;5075397;28;1113;-57
2023/08/26 00:15:43;;;;;;;;;;;;;;;17.23;54.82;100707.25;5069106;28;1079;-60
2023/08/26 00:18:11;;;;;;;;;;;;;;;17.07;54.72;100720.22;5074537;28;907;-59
2023/08/26 00:20:38;;;;;;;;;;;;;;;16.97;54.48;100712.00;5058538;28;1095;-60
2023/08/26 00:23:03;;;;;;;;;;;;;;;16.96;54.02;100710.34;5071730;28;1091;-59
2023/08/26 00:25:29;;;;;;;;;;;;;;;16.90;53.90;100708.69;5058455;28;1039;-59
2023/08/26 00:27:55;;;;;;;;;;;;;;;16.87;54.04;100707.31;5058975;28;1234;-59
2023/08/26 00:30:20;;;;;;;;;;;;;;;16.86;53.83;100705.66;5060350;28;1993;-59
2023/08/26 00:32:47;;;;;;;;;;;;;;;16.84;53.69;100712.53;5047136;28;1091;-59
2023/08/26 00:35:12;;;;;;;;;;;;;;;16.79;53.69;100704.28;5068456;28;1058;-59
2023/08/26 00:37:38;;;;;;;;;;;;;;;16.80;53.71;100708.69;5053966;28;1641;-59
2023/08/26 00:40:03;;;;;;;;;;;;;;;16.85;53.28;100714.19;5058252;28;1170;-59
2023/08/26 00:42:29;;;;;;;;;;;;;;;16.76;53.49;100708.44;5078402;28;1095;-59
2023/08/26 00:44:54;;;;;;;;;;;;;;;16.74;53.59;100716.94;5060162;28;1082;-59
2023/08/26 00:47:20;;;;;;;;;;;;;;;16.72;53.39;100708.16;5056501;28;1091;-59
2023/08/26 00:49:45;;;;;;;;;;;;;;;16.69;53.48;100707.88;5050058;28;1910;-60
2023/08/26 00:52:12;;;;;;;;;;;;;;;16.68;53.42;100706.25;5064108;28;1153;-60
2023/08/26 00:54:38;;;;;;;;;;;;;;;16.70;53.27;100706.78;5060330;28;1083;-58
2023/08/26 00:57:04;;;;;;;;;;;;;;;16.63;53.56;100703.50;5060004;28;1147;-59
2023/08/26 00:59:30;;;;;;;;;;;;;;;16.63;53.46;100703.50;5067274;28;1210;-59
2023/08/26 01:01:56;;;;;;;;;;;;;;;17.57;54.62;100705.75;5053494;28;1134;-58
2023/08/26 01:04:21;;;;;;;;;;;;;;;17.52;54.89;100703.03;5040867;28;1102;-58
2023/08/26 01:06:47;;;;;;;;;;;;;;;17.31;54.77;100700.38;5056313;28;1208;-59
2023/08/26 01:09:12;;;;;;;;;;;;;;;17.08;54.60;100704.53;5067362;28;1146;-59
2023/08/26 01:11:41;;;;;;;;;;;;;;;17.10;54.24;100703.16;5055860;28;1972;-59
2023/08/26 01:14:29;;;;;;;;;;;;;;;17.00;54.20;100699.63;5068070;28;1067;-60
2023/08/26 01:16:54;;;;;;;;;;;;;;;16.99;54.04;100704.28;5057631;28;1290;-58
2023/08/26 01:19:29;;;;;;;;;;;;;;;16.96;53.69;100706.75;5042668;28;1052;-58
2023/08/26 01:21:55;;;;;;;;;;;;;;;16.88;53.96;100705.38;5047153;28;1602;-58
2023/08/26 01:24:20;;;;;;;;;;;;;;;16.86;53.79;100700.19;5046269;28;1251;-60
2023/08/26 01:26:46;;;;;;;;;;;;;;;16.85;53.50;100701.28;5069952;28;1206;-59
2023/08/26 01:29:11;;;;;;;;;;;;;;;16.82;53.67;100703.75;5063674;28;1241;-57
2023/08/26 01:31:37;;;;;;;;;;;;;;;16.79;53.63;100696.06;5070082;28;1917;-57
2023/08/26 01:34:07;;;;;;;;;;;;;;;16.81;53.40;100693.88;5051744;28;1262;-57
2023/08/26 01:36:33;;;;;;;;;;;;;;;16.81;53.32;100694.69;5040020;28;1111;-58
2023/08/26 01:38:58;;;;;;;;;;;;;;;16.81;53.31;100693.88;5039777;28;1095;-58
2023/08/26 01:41:24;;;;;;;;;;;;;;;16.75;53.36;100696.63;5022410;28;1234;-59
2023/08/26 01:43:50;;;;;;;;;;;;;;;16.74;53.30;100699.63;5058311;28;1129;-58
2023/08/26 01:46:16;;;;;;;;;;;;;;;16.74;53.22;100694.16;5064867;28;1051;-58
2023/08/26 01:48:42;;;;;;;;;;;;;;;16.70;53.18;100693.06;5076895;28;1027;-58
2023/08/26 01:51:09;;;;;;;;;;;;;;;16.64;53.56;100697.72;5050680;28;1914;-58
2023/08/26 01:53:34;;;;;;;;;;;;;;;16.70;53.33;100693.06;5053180;28;1304;-58
2023/08/26 01:56:00;;;;;;;;;;;;;;;16.64;53.40;100697.72;5058747;28;1186;-59
2023/08/26 01:58:25;;;;;;;;;;;;;;;16.65;53.41;100696.63;5057623;28;1268;-58
2023/08/26 02:00:51;;;;;;;;;;;;;;;16.61;53.22;100706.53;5039193;28;1127;-59
2023/08/26 02:03:17;;;;;;;;;;;;;;;16.56;53.26;100698.28;5038716;28;1387;-58
2023/08/26 02:05:43;;;;;;;;;;;;;;;16.58;53.54;100696.91;5047052;28;1100;-58
2023/08/26 02:08:08;;;;;;;;;;;;;;;16.53;53.34;100699.66;5044214;28;1290;-58
2023/08/26 02:10:33;;;;;;;;;;;;;;;16.59;53.17;100700.47;5076249;28;1886;-58
2023/08/26 02:12:59;;;;;;;;;;;;;;;17.39;54.34;100710.78;5061445;28;1237;-58
2023/08/26 02:15:25;;;;;;;;;;;;;;;17.61;54.62;100706.81;5038940;28;1221;-59
2023/08/26 02:17:50;;;;;;;;;;;;;;;17.20;54.82;100707.81;5064767;28;1054;-58
2023/08/26 02:20:16;;;;;;;;;;;;;;;17.10;54.56;100708.66;5076614;28;1019;-59
2023/08/26 02:22:41;;;;;;;;;;;;;;;17.01;54.09;100704.84;5044754;28;1218;-58
2023/08/26 02:25:07;;;;;;;;;;;;;;;16.95;54.21;100716.94;5058258;28;1283;-58
2023/08/26 02:27:33;;;;;;;;;;;;;;;16.89;53.97;100707.88;5043249;28;1271;-58
2023/08/26 02:29:58;;;;;;;;;;;;;;;16.85;54.10;100697.72;5047240;28;1967;-57
2023/08/26 02:32:25;;;;;;;;;;;;;;;16.83;53.74;100702.63;5075407;28;1162;-57
2023/08/26 02:34:50;;;;;;;;;;;;;;;16.76;53.67;100706.50;5045337;28;1087;-57
2023/08/26 02:37:16;;;;;;;;;;;;;;;16.81;53.65;100704.84;5058278;28;1126;-57
2023/08/26 02:39:41;;;;;;;;;;;;;;;16.77;53.46;100708.16;5056075;28;1036;-57
2023/08/26 02:42:07;;;;;;;;;;;;;;;16.70;53.67;100702.09;5065518;28;1027;-57
2023/08/26 02:44:33;;;;;;;;;;;;;;;16.71;53.64;100706.50;5069593;28;1117;-57
2023/08/26 02:46:58;;;;;;;;;;;;;;;16.67;53.52;100705.41;5037980;28;1096;-57
2023/08/26 02:49:24;;;;;;;;;;;;;;;16.65;53.42;100696.63;5075775;28;1131;-57
2023/08/26 02:51:49;;;;;;;;;;;;;;;16.70;53.50;100695.81;5057752;28;1985;-57
2023/08/26 02:54:15;;;;;;;;;;;;;;;16.68;53.34;100696.06;5047600;28;1194;-58
2023/08/26 02:56:40;;;;;;;;;;;;;;;16.69;53.16;100696.88;5075974;28;1113;-58
2023/08/26 02:59:06;;;;;;;;;;;;;;;16.63;53.28;100695.25;5038458;28;1095;-58
2023/08/26 03:01:31;;;;;;;;;;;;;;;16.58;53.49;100685.13;5038030;28;1254;-57
2023/08/26 03:03:57;;;;;;;;;;;;;;;17.40;54.13;100698.69;5050986;28;1355;-58
2023/08/26 03:06:23;;;;;;;;;;;;;;;17.41;54.71;100700.31;5048127;28;1123;-57
2023/08/26 03:08:48;;;;;;;;;;;;;;;17.09;54.95;100696.03;5074850;28;1431;-57
2023/08/26 03:11:14;;;;;;;;;;;;;;;17.05;54.42;100689.44;5057859;28;1898;-59
2023/08/26 03:13:42;;;;;;;;;;;;;;;17.00;54.37;100696.88;5057848;28;1166;-61
2023/08/26 03:16:08;;;;;;;;;;;;;;;16.96;53.91;100707.59;5057271;28;1202;-57
2023/08/26 03:18:33;;;;;;;;;;;;;;;16.90;54.02;100706.78;5070442;28;1202;-53
2023/08/26 03:21:05;;;;;;;;;;;;;;;16.88;53.72;100710.88;5048768;28;1915;-56
2023/08/26 03:23:31;;;;;;;;;;;;;;;16.80;53.84;100704.00;5058759;28;1127;-55
2023/08/26 03:25:57;;;;;;;;;;;;;;;16.77;53.61;100721.03;5056619;28;1518;-55
2023/08/26 03:28:23;;;;;;;;;;;;;;;16.83;53.31;100711.72;5057127;28;1362;-54
2023/08/26 03:30:49;;;;;;;;;;;;;;;16.79;53.68;100715.28;5055820;28;1910;-55
2023/08/26 03:33:16;;;;;;;;;;;;;;;16.74;53.33;100711.44;5050263;28;1131;-56
2023/08/26 03:35:42;;;;;;;;;;;;;;;16.71;53.72;100717.47;5038028;28;1463;-55
2023/08/26 03:38:07;;;;;;;;;;;;;;;16.74;53.23;100716.13;5051847;28;2435;-58
2023/08/26 03:40:33;;;;;;;;;;;;;;;16.67;53.41;100727.38;5075165;28;1952;-54
2023/08/26 03:43:01;;;;;;;;;;;;;;;16.65;53.44;100734.22;5051151;28;2133;-56
2023/08/26 03:45:28;;;;;;;;;;;;;;;17.36;54.21;100722.34;5051558;28;1983;-55
2023/08/26 03:47:54;;;;;;;;;;;;;;;17.70;54.42;100721.66;5072489;28;2004;-55
2023/08/26 03:50:19;;;;;;;;;;;;;;;17.28;55.04;100717.41;5062330;28;2204;-55
2023/08/26 03:52:45;;;;;;;;;;;;;;;17.09;54.65;100718.00;5045729;28;2022;-52
2023/08/26 03:55:11;;;;;;;;;;;;;;;17.01;54.52;100721.34;5048888;28;2387;-51
2023/08/26 03:57:36;;;;;;;;;;;;;;;17.07;54.01;100722.97;5072632;28;869;-50
2023/08/26 04:00:02;;;;;;;;;;;;;;;16.95;54.10;100724.38;5060425;28;1182;-50
2023/08/26 04:02:28;;;;;;;;;;;;;;;16.89;54.19;100723.56;5059950;28;1055;-50
2023/08/26 04:04:53;;;;;;;;;;;;;;;17.07;55.36;100728.47;5051806;28;1096;-58
2023/08/26 04:07:19;;;;;;;;;;;;;;;16.96;54.81;100729.56;5056780;28;1135;-54
2023/08/26 04:09:44;;;;;;;;;;;;;;;16.97;54.37;100719.41;5059194;28;1914;-55
2023/08/26 04:12:10;;;;;;;;;;;;;;;16.89;54.51;100726.31;5042654;28;1097;-58
2023/08/26 04:14:35;;;;;;;;;;;;;;;16.89;54.24;100727.13;5058837;28;1147;-57
2023/08/26 04:17:03;;;;;;;;;;;;;;;16.85;54.12;100730.66;5042149;28;1075;-57
2023/08/26 04:19:30;;;;;;;;;;;;;;;16.81;53.96;100733.13;5060514;28;1102;-50
2023/08/26 04:21:59;;;;;;;;;;;;;;;16.86;53.69;100740.56;5047305;28;1132;-54
2023/08/26 04:24:25;;;;;;;;;;;;;;;16.81;53.82;100733.13;5060395;28;1333;-54
2023/08/26 04:26:50;;;;;;;;;;;;;;;16.80;53.89;100731.47;5078139;28;1073;-55
2023/08/26 04:29:16;;;;;;;;;;;;;;;16.76;53.60;100730.41;5047262;28;1267;-49
2023/08/26 04:31:41;;;;;;;;;;;;;;;16.75;53.64;100729.56;5078133;28;1981;-54
2023/08/26 04:34:07;;;;;;;;;;;;;;;16.77;53.58;100732.88;5065084;28;1201;-54
2023/08/26 04:36:33;;;;;;;;;;;;;;;16.71;53.63;100739.44;5052530;28;1157;-50
2023/08/26 04:38:58;;;;;;;;;;;;;;;16.73;53.74;100730.94;5058103;28;1221;-53
2023/08/26 04:41:24;;;;;;;;;;;;;;;16.76;54.02;100733.97;5048367;28;1285;-52
2023/08/26 04:43:52;;;;;;;;;;;;;;;16.70;55.09;100736.97;5060136;28;1086;-54
2023/08/26 04:46:18;;;;;;;;;;;;;;;18.03;53.80;100734.97;5078291;28;1101;-56
2023/08/26 04:48:44;;;;;;;;;;;;;;;17.13;53.97;100731.19;5064150;28;1075;-57
2023/08/26 04:51:10;;;;;;;;;;;;;;;16.91;52.28;100740.56;5051063;28;1972;-58
2023/08/26 04:53:35;;;;;;;;;;;;;;;16.82;50.89;100744.97;5053306;28;1593;-58
2023/08/26 04:56:02;;;;;;;;;;;;;;;16.82;49.98;100739.47;5057015;28;1121;-55
2023/08/26 04:58:28;;;;;;;;;;;;;;;16.77;49.54;100737.53;5061969;28;1054;-48
2023/08/26 05:00:54;;;;;;;;;;;;;;;16.77;48.75;100738.38;5039465;28;1411;-50
2023/08/26 05:03:20;;;;;;;;;;;;;;;17.60;51.67;100732.69;5053027;28;1987;-56
2023/08/26 05:05:45;;;;;;;;;;;;;;;17.33;51.82;100722.88;5057547;28;1186;-58
2023/08/26 05:08:11;;;;;;;;;;;;;;;17.16;50.79;100731.44;5056342;28;1448;-57
2023/08/26 05:10:39;;;;;;;;;;;;;;;17.13;49.38;100731.19;5059963;28;1906;-57
2023/08/26 05:13:05;;;;;;;;;;;;;;;17.07;48.76;100725.72;5064456;28;1147;-57
2023/08/26 05:15:31;;;;;;;;;;;;;;;17.12;48.23;100721.31;5050542;28;1182;-57
2023/08/26 05:17:57;;;;;;;;;;;;;;;17.89;50.01;100730.09;5039589;28;1129;-59
2023/08/26 05:20:22;;;;;;;;;;;;;;;17.44;49.85;100727.22;5057946;28;1327;-57
2023/08/26 05:22:49;;;;;;;;;;;;;;;17.34;49.21;100727.28;5057345;28;1149;-59
2023/08/26 05:25:14;;;;;;;;;;;;;;;17.24;48.56;100732.81;5066603;28;1035;-59
2023/08/26 05:27:40;;;;;;;;;;;;;;;17.23;47.82;100728.41;5044851;28;1202;-61
2023/08/26 05:30:07;;;;;;;;;;;;;;;18.07;49.17;100734.09;5046915;28;1906;-59
2023/08/26 05:32:39;;;;;;;;;;;;;;;17.67;49.55;100733.22;5056559;28;1268;-60
2023/08/26 05:35:05;;;;;;;;;;;;;;;17.49;49.12;100737.41;5066021;28;1055;-62
2023/08/26 05:37:31;;;;;;;;;;;;;;;17.47;48.14;100733.28;5057010;28;1419;-61
2023/08/26 05:39:56;;;;;;;;;;;;;;;17.36;47.79;100736.09;5039201;28;1183;-61
2023/08/26 05:42:22;;;;;;;;;;;;;;;17.38;47.40;100731.13;5052690;28;1167;-61
2023/08/26 05:44:48;;;;;;;;;;;;;;;17.28;47.24;100734.72;5057223;28;1078;-61
2023/08/26 05:47:13;;;;;;;;;;;;;;;17.34;46.73;100737.47;5058824;28;1063;-59
2023/08/26 05:49:39;;;;;;;;;;;;;;;17.31;46.57;100741.59;5058971;28;1111;-60
2023/08/26 05:52:04;;;;;;;;;;;;;;;17.27;46.42;100740.50;5058658;28;1987;-57
2023/08/26 05:54:30;;;;;;;;;;;;;;;17.26;46.38;100728.69;5058605;28;1150;-57
2023/08/26 05:56:56;;;;;;;;;;;;;;;17.24;46.67;100730.06;5045272;28;1501;-60
2023/08/26 05:59:21;;;;;;;;;;;;;;;17.50;47.07;100727.22;5058526;28;1118;-59
2023/08/26 06:01:47;;;;;;;;;;;;;;;17.94;48.40;100741.06;5056119;28;1510;-59
2023/08/26 06:04:12;;;;;;;;;;;;;;;17.65;48.06;100735.41;5047549;28;1126;-60
2023/08/26 06:06:38;;;;;;;;;;;;;;;17.58;47.90;100732.16;5044595;28;1155;-59
2023/08/26 06:09:04;;;;;;;;;;;;;;;17.54;47.09;100739.31;5050774;28;1273;-61
2023/08/26 06:11:29;;;;;;;;;;;;;;;17.56;46.90;100739.88;5071554;28;1902;-62
2023/08/26 06:13:55;;;;;;;;;;;;;;;17.48;46.78;100752.25;5058871;28;1091;-60
2023/08/26 06:16:21;;;;;;;;;;;;;;;17.56;46.44;100745.38;5044839;28;1268;-62
2023/08/26 06:18:47;;;;;;;;;;;;;;;17.47;46.40;100749.78;5050609;28;1182;-60
2023/08/26 06:21:13;;;;;;;;;;;;;;;17.46;46.54;100754.47;5039806;28;1282;-61
2023/08/26 06:23:39;;;;;;;;;;;;;;;17.49;46.07;100753.06;5076147;28;1055;-61
2023/08/26 06:26:04;;;;;;;;;;;;;;;17.43;46.23;100755.00;5056504;28;1175;-62
2023/08/26 06:28:30;;;;;;;;;;;;;;;17.44;46.37;100754.72;5039037;28;1199;-59
2023/08/26 06:30:57;;;;;;;;;;;;;;;17.44;46.06;100762.97;5050426;28;1910;-59
2023/08/26 06:33:22;;;;;;;;;;;;;;;17.50;46.00;100766.56;5046698;28;1909;-61
2023/08/26 06:35:49;;;;;;;;;;;;;;;17.54;45.73;100767.63;5043086;28;1279;-60
2023/08/26 06:38:14;;;;;;;;;;;;;;;17.48;45.77;100765.19;5055942;28;1130;-62
2023/08/26 06:40:40;;;;;;;;;;;;;;;17.41;46.18;100769.03;5052366;28;1063;-58
2023/08/26 06:43:05;;;;;;;;;;;;;;;17.41;46.02;100777.28;5075945;28;1020;-59
2023/08/26 06:45:34;;;;;;;;;;;;;;;17.43;45.82;100782.50;5055756;28;1305;-59
2023/08/26 06:48:02;;;;;;;;;;;;;;;17.48;45.72;100776.19;5052164;28;1333;-58
2023/08/26 06:50:28;;;;;;;;;;;;;;;17.47;46.08;100788.28;5046689;28;1902;-61
2023/08/26 06:52:55;;;;;;;;;;;;;;;17.43;45.89;100780.59;5037757;28;1106;-61
2023/08/26 06:55:20;;;;;;;;;;;;;;;17.39;46.12;100785.00;5059094;28;1028;-60
2023/08/26 06:57:46;;;;;;;;;;;;;;;17.35;46.00;100781.16;5069044;28;1075;-60
2023/08/26 07:00:12;;;;;;;;;;;;;;;17.44;46.11;100773.97;5062857;28;1458;-61
2023/08/26 07:02:37;;;;;;;;;;;;;;;17.54;45.84;100783.28;5062138;28;1154;-59
2023/08/26 07:05:03;;;;;;;;;;;;;;;17.47;45.99;100780.03;5068700;28;1075;-59
2023/08/26 07:07:28;;;;;;;;;;;;;;;17.44;45.90;100779.47;5058773;28;1008;-60
2023/08/26 07:09:54;;;;;;;;;;;;;;;17.40;46.19;100788.56;5070433;28;1965;-60
2023/08/26 07:12:19;;;;;;;;;;;;;;;17.50;45.99;100782.22;5074382;28;1074;-61
2023/08/26 07:14:45;;;;;;;;;;;;;;;17.52;45.89;100788.25;5055335;28;1071;-60
2023/08/26 07:17:11;;;;;;;;;;;;;;;17.50;45.86;100782.22;5055960;28;996;-62
2023/08/26 07:19:37;;;;;;;;;;;;;;;17.46;46.21;100787.47;5038124;28;1048;-63
2023/08/26 07:22:03;;;;;;;;;;;;;;;17.50;46.14;100783.06;5068386;28;1119;-63
2023/08/26 07:24:29;;;;;;;;;;;;;;;17.51;46.05;100792.13;5062863;28;1229;-62
2023/08/26 07:26:54;;;;;;;;;;;;;;;17.47;46.02;100789.09;5061696;28;1113;-62
2023/08/26 07:29:20;;;;;;;;;;;;;;;17.50;45.94;100790.47;5070087;28;1115;-62
2023/08/26 07:31:45;;;;;;;;;;;;;;;17.41;45.99;100791.03;5071679;28;1914;-62
2023/08/26 07:34:11;;;;;;;;;;;;;;;17.55;45.83;100785.75;5078448;28;1059;-62
2023/08/26 07:36:36;;;;;;;;;;;;;;;17.50;45.95;100783.06;5071615;28;1162;-62
2023/08/26 07:39:03;;;;;;;;;;;;;;;17.56;45.85;100781.09;5074263;28;1178;-62
2023/08/26 07:41:28;;;;;;;;;;;;;;;17.54;45.91;100781.34;5079393;28;1098;-62
2023/08/26 07:43:54;;;;;;;;;;;;;;;17.49;46.10;100781.41;5077898;28;1129;-62
2023/08/26 07:46:22;;;;;;;;;;;;;;;17.62;45.70;100779.97;5079056;28;1055;-62
2023/08/26 07:48:48;;;;;;;;;;;;;;;17.64;45.82;100769.50;5065868;28;1170;-62
2023/08/26 07:51:14;;;;;;;;;;;;;;;17.62;46.05;100779.97;5070554;28;1980;-62
2023/08/26 07:53:39;;;;;;;;;;;;;;;17.58;45.78;100781.63;5073552;28;1058;-62
2023/08/26 07:56:05;;;;;;;;;;;;;;;17.60;45.88;100776.69;5076993;28;1101;-62
2023/08/26 07:58:30;;;;;;;;;;;;;;;17.51;46.16;100770.94;5064909;28;1178;-62
2023/08/26 08:00:55;;;;;;;;;;;;;;;17.66;45.93;100777.50;5071172;28;1123;-64
2023/08/26 08:03:21;;;;;;;;;;;;;;;17.57;45.94;100777.22;5072162;28;1171;-64
2023/08/26 08:05:47;;;;;;;;;;;;;;;17.61;46.02;100776.41;5066579;28;1093;-63
2023/08/26 08:08:12;;;;;;;;;;;;;;;17.62;45.99;100777.22;5064554;28;1214;-62
2023/08/26 08:10:37;;;;;;;;;;;;;;;17.63;45.88;100776.13;5066889;28;1913;-61
2023/08/26 08:13:04;;;;;;;;;;;;;;;17.63;46.00;100781.63;5077139;28;1093;-62
2023/08/26 08:15:29;;;;;;;;;;;;;;;17.65;45.96;100790.41;5066591;28;1194;-62
2023/08/26 08:17:55;;;;;;;;;;;;;;;17.65;45.95;100782.16;5064130;28;1225;-62
2023/08/26 08:20:21;;;;;;;;;;;;;;;17.74;45.74;100780.47;5058452;28;1121;-63
2023/08/26 08:22:46;;;;;;;;;;;;;;;17.69;45.82;100783.25;5071820;28;1182;-62
2023/08/26 08:25:12;;;;;;;;;;;;;;;17.65;46.00;100779.41;5066685;28;1119;-62
2023/08/26 08:27:38;;;;;;;;;;;;;;;17.68;45.87;100780.78;5063871;28;1182;-60
2023/08/26 08:30:04;;;;;;;;;;;;;;;17.77;45.96;100776.34;5058263;28;1917;-60
2023/08/26 08:32:30;;;;;;;;;;;;;;;17.71;45.96;100775.56;5059248;28;1058;-62
2023/08/26 08:34:55;;;;;;;;;;;;;;;17.77;46.03;100779.09;5070751;28;1035;-62
2023/08/26 08:37:21;;;;;;;;;;;;;;;17.75;45.95;100771.13;5058483;28;1202;-62
2023/08/26 08:39:47;;;;;;;;;;;;;;;17.71;46.22;100781.06;5065937;28;1064;-61
2023/08/26 08:42:15;;;;;;;;;;;;;;;17.79;45.78;100785.13;5077752;28;1106;-61
2023/08/26 08:44:41;;;;;;;;;;;;;;;17.76;46.13;100782.94;5076863;28;1232;-62
2023/08/26 08:47:07;;;;;;;;;;;;;;;17.74;46.02;100783.22;5064704;28;1120;-60
2023/08/26 08:49:32;;;;;;;;;;;;;;;17.76;46.07;100775.50;5077886;28;1091;-61
2023/08/26 08:51:58;;;;;;;;;;;;;;;17.79;45.95;100776.88;5046685;28;1905;-58
2023/08/26 08:54:24;;;;;;;;;;;;;;;17.82;45.97;100778.25;5059772;28;1149;-60
2023/08/26 08:56:49;;;;;;;;;;;;;;;17.81;46.14;100776.59;5046065;28;1189;-61
2023/08/26 08:59:15;;;;;;;;;;;;;;;17.82;45.86;100770.00;5060510;28;1106;-62
2023/08/26 09:01:40;;;;;;;;;;;;;;;17.74;46.20;100777.72;5030759;28;1040;-60
2023/08/26 09:04:07;;;;;;;;;;;;;;;17.82;46.13;100784.56;5056610;28;1075;-59
2023/08/26 09:06:33;;;;;;;;;;;;;;;17.83;46.18;100775.22;5057245;28;1207;-60
2023/08/26 09:08:59;;;;;;;;;;;;;;;17.89;46.15;100778.75;5058338;28;965;-60
2023/08/26 09:11:27;;;;;;;;;;;;;;;17.87;46.17;100780.97;5057701;28;1965;-57
2023/08/26 09:13:52;;;;;;;;;;;;;;;17.94;45.91;100787.03;5057395;28;1064;-62
2023/08/26 09:16:28;;;;;;;;;;;;;;;17.92;45.93;100781.81;5070369;28;1206;-57
2023/08/26 09:18:57;;;;;;;;;;;;;;;17.90;46.24;100775.72;5067271;28;1150;-60
2023/08/26 09:21:22;;;;;;;;;;;;;;;17.88;46.12;100774.34;5073675;28;1046;-60
2023/08/26 09:23:49;;;;;;;;;;;;;;;17.89;46.02;100776.00;5067278;28;1063;-61
2023/08/26 09:26:16;;;;;;;;;;;;;;;17.89;45.94;100771.34;5063594;28;1142;-59
2023/08/26 09:28:48;;;;;;;;;;;;;;;17.92;46.02;100786.47;5067222;28;1042;-60
2023/08/26 09:31:13;;;;;;;;;;;;;;;17.89;45.98;100771.34;5070844;28;1905;-60
2023/08/26 09:33:39;;;;;;;;;;;;;;;17.92;46.06;100768.06;5067950;28;909;-59
2023/08/26 09:36:05;;;;;;;;;;;;;;;17.96;45.79;100773.78;5060170;28;1116;-59
2023/08/26 09:38:50;;;;;;;;;;;;;;;17.94;45.88;100776.03;5067379;28;1023;-58
2023/08/26 09:41:19;;;;;;;;;;;;;;;17.97;45.93;100769.94;5070576;28;1058;-59
2023/08/26 09:43:47;;;;;;;;;;;;;;;17.98;45.87;100766.09;5070742;28;1055;-57
2023/08/26 09:46:19;;;;;;;;;;;;;;;17.99;46.07;100761.41;5063587;28;1016;-60
2023/08/26 09:48:46;;;;;;;;;;;;;;;18.02;45.79;100761.69;5063118;28;1038;-61
2023/08/26 09:51:13;;;;;;;;;;;;;;;17.99;46.24;100767.72;5069098;28;1909;-61
2023/08/26 09:53:38;;;;;;;;;;;;;;;18.06;46.07;100772.91;5039146;28;1004;-59
2023/08/26 09:56:04;;;;;;;;;;;;;;;18.05;45.93;100765.78;5046291;28;1135;-61
2023/08/26 09:58:29;;;;;;;;;;;;;;;17.99;46.05;100764.97;5075716;28;891;-60
2023/08/26 10:00:55;;;;;;;;;;;;;;;17.99;46.09;100764.16;5051432;28;1282;-61
2023/08/26 10:03:24;;;;;;;;;;;;;;;18.01;46.22;100754.53;5040130;28;1056;-61
2023/08/26 10:05:59;;;;;;;;;;;;;;;18.05;46.17;100758.34;5076584;28;1030;-58
2023/08/26 10:08:27;;;;;;;;;;;;;;;18.00;46.28;100752.88;5075493;28;1086;-60
2023/08/26 10:10:53;;;;;;;;;;;;;;;18.05;46.12;100755.59;5056373;28;1974;-58
2023/08/26 10:13:22;;;;;;;;;;;;;;;18.09;45.85;100751.19;5071521;28;1194;-60
2023/08/26 10:15:51;;;;;;;;;;;;;;;18.05;45.92;100750.09;5066427;28;1134;-60
2023/08/26 10:18:41;;;;;;;;;;;;;;;18.09;45.79;100747.59;5059421;28;1235;-59
2023/08/26 10:21:07;;;;;;;;;;;;;;;18.02;46.13;100745.16;5059176;28;1582;-61
2023/08/26 10:23:32;;;;;;;;;;;;;;;18.20;45.43;100742.84;5069549;28;1137;-60
2023/08/26 10:25:58;;;;;;;;;;;;;;;18.17;45.77;100746.16;5058508;28;1143;-59
2023/08/26 10:28:23;;;;;;;;;;;;;;;18.05;45.91;100749.28;5076174;28;1118;-60
2023/08/26 10:30:50;;;;;;;;;;;;;;;18.02;46.20;100750.66;5050624;28;1913;-58
2023/08/26 10:33:16;;;;;;;;;;;;;;;18.02;45.85;100744.31;5063062;28;1121;-58
2023/08/26 10:35:41;;;;;;;;;;;;;;;18.11;45.76;100748.94;5075849;28;1102;-60
2023/08/26 10:38:14;;;;;;;;;;;;;;;18.12;46.09;100755.28;5063489;28;1138;-59
2023/08/26 10:40:39;;;;;;;;;;;;;;;18.05;46.05;100744.59;5056191;28;1070;-59
2023/08/26 10:43:06;;;;;;;;;;;;;;;18.21;45.55;100750.81;5067654;28;1071;-59
2023/08/26 10:45:31;;;;;;;;;;;;;;;18.13;45.73;100751.41;5065567;28;1059;-60
2023/08/26 10:47:57;;;;;;;;;;;;;;;18.05;45.99;100750.09;5062218;28;1134;-60
2023/08/26 10:50:23;;;;;;;;;;;;;;;18.06;45.99;100754.50;5067797;28;1910;-60
2023/08/26 10:52:49;;;;;;;;;;;;;;;18.15;45.61;100754.72;5069323;28;1103;-60
2023/08/26 10:55:18;;;;;;;;;;;;;;;18.09;46.04;100751.19;5064026;28;1147;-60
2023/08/26 10:58:02;;;;;;;;;;;;;;;18.10;45.61;100757.50;5073700;28;1055;-58
2023/08/26 11:00:28;;;;;;;;;;;;;;;18.18;45.58;100751.38;5055626;28;1121;-61
2023/08/26 11:02:54;;;;;;;;;;;;;;;18.15;45.58;100743.72;5060488;28;1134;-63
2023/08/26 11:05:23;;;;;;;;;;;;;;;18.13;45.74;100748.66;5076076;28;1117;-62
2023/08/26 11:07:48;;;;;;;;;;;;;;;18.14;45.85;100747.56;5060859;28;1060;-62
2023/08/26 11:10:26;;;;;;;;;;;;;;;18.17;45.69;100746.16;5073466;28;1951;-60
2023/08/26 11:12:52;;;;;;;;;;;;;;;18.11;45.79;100742.63;5079965;28;1027;-60
2023/08/26 11:15:18;;;;;;;;;;;;;;;18.14;45.72;100747.56;5079806;28;1117;-60
2023/08/26 11:17:43;;;;;;;;;;;;;;;18.18;45.79;100747.81;5073468;28;1011;-61
2023/08/26 11:20:09;;;;;;;;;;;;;;;18.17;45.70;100746.16;5054894;28;1019;-61
2023/08/26 11:22:34;;;;;;;;;;;;;;;18.14;45.77;100758.56;5066148;28;1103;-58
2023/08/26 11:25:00;;;;;;;;;;;;;;;18.19;45.59;100754.94;5066796;28;1034;-57
2023/08/26 11:27:25;;;;;;;;;;;;;;;18.20;45.70;100753.84;5065346;28;1067;-58
2023/08/26 11:29:51;;;;;;;;;;;;;;;18.11;45.81;100748.13;5079359;28;1131;-56
2023/08/26 11:32:16;;;;;;;;;;;;;;;18.17;45.81;100751.69;5079021;28;1901;-58
2023/08/26 11:34:42;;;;;;;;;;;;;;;18.10;45.84;100741.81;5060973;28;1403;-60
2023/08/26 11:37:08;;;;;;;;;;;;;;;18.14;45.67;100744.81;5079648;28;1130;-59
2023/08/26 11:39:35;;;;;;;;;;;;;;;18.18;45.56;100736.81;5075954;28;1121;-58
2023/08/26 11:42:10;;;;;;;;;;;;;;;18.27;45.26;100743.34;5063386;28;1023;-58
2023/08/26 11:44:36;;;;;;;;;;;;;;;18.18;45.73;100742.31;5079494;28;1131;-59
2023/08/26 11:47:01;;;;;;;;;;;;;;;18.11;45.84;100740.69;5071452;28;846;-59
2023/08/26 11:49:27;;;;;;;;;;;;;;;18.18;45.55;100737.63;5077918;28;1248;-59
2023/08/26 11:51:52;;;;;;;;;;;;;;;18.22;45.46;100743.41;5071754;28;1971;-59
2023/08/26 11:54:24;;;;;;;;;;;;;;;18.11;45.53;100735.19;5070437;28;1078;-57
2023/08/26 11:56:50;;;;;;;;;;;;;;;18.19;46.07;100741.19;5060552;28;1047;-57
2023/08/26 11:59:19;;;;;;;;;;;;;;;18.22;45.94;100738.72;5045964;28;914;-57
2023/08/26 12:01:45;;;;;;;;;;;;;;;18.19;45.77;100738.44;5077549;28;1069;-57
2023/08/26 12:04:16;;;;;;;;;;;;;;;18.30;45.51;100740.84;5073175;28;1026;-56
2023/08/26 12:06:42;;;;;;;;;;;;;;;18.23;45.63;100739.50;5072408;28;1122;-56
2023/08/26 12:09:07;;;;;;;;;;;;;;;18.23;45.77;100740.34;5064338;28;1115;-59
2023/08/26 12:11:34;;;;;;;;;;;;;;;18.23;45.87;100734.84;5071035;28;1976;-60
2023/08/26 12:14:00;;;;;;;;;;;;;;;18.23;45.68;100734.84;5071872;28;1047;-59
2023/08/26 12:16:25;;;;;;;;;;;;;;;18.22;45.61;100732.38;5071425;28;1133;-58
2023/08/26 12:18:53;;;;;;;;;;;;;;;18.19;45.80;100738.44;5058196;28;1114;-59
2023/08/26 12:21:19;;;;;;;;;;;;;;;18.43;46.73;100744.06;5065762;28;1449;-59
2023/08/26 12:23:46;;;;;;;;;;;;;;;18.40;48.17;100734.44;5077774;28;1039;-60
2023/08/26 12:26:12;;;;;;;;;;;;;;;18.33;47.16;100736.72;5078810;28;1105;-60
2023/08/26 12:28:39;;;;;;;;;;;;;;;18.24;47.17;100736.50;5070298;28;1134;-60
2023/08/26 12:31:04;;;;;;;;;;;;;;;18.29;46.74;100736.44;5062189;28;1964;-61
2023/08/26 12:33:30;;;;;;;;;;;;;;;18.31;46.25;100730.66;5067280;28;1210;-62
2023/08/26 12:35:56;;;;;;;;;;;;;;;18.27;46.06;100724.91;5075135;28;961;-61
2023/08/26 12:38:22;;;;;;;;;;;;;;;18.37;46.16;100725.94;5058356;28;1166;-60
2023/08/26 12:40:48;;;;;;;;;;;;;;;18.34;45.71;100721.00;5078056;28;1122;-60
2023/08/26 12:43:14;;;;;;;;;;;;;;;18.31;45.76;100725.16;5073058;28;1121;-60